METAR Data
IDs: Format: Raw Decoded Include TAF

Data at: 1958 UTC 25 Sep 2020

KUNU 251955Z AUTO 17014G21KT 10SM CLR 24/14 A2987 RMK AO2 T02440136
KUNU 251935Z AUTO 19012G19KT 10SM CLR 24/13 A2988 RMK AO2 T02420133
KUNU 251915Z AUTO 19014G19KT 10SM CLR 24/13 A2989 RMK AO2 T02420131
KUNU 251855Z AUTO 16015G20KT 10SM CLR 24/13 A2989 RMK AO2 T02390133
KUNU 251835Z AUTO 19013G20KT 10SM CLR 24/13 A2990 RMK AO2 T02370133
KUNU 251815Z AUTO 18011G20KT 10SM CLR 24/13 A2991 RMK AO2 T02350132
KUNU 251755Z AUTO 17017G23KT 10SM CLR 23/13 A2992 RMK AO2 T02320127 10322 20022
KUNU 251735Z AUTO 18016G22KT 10SM CLR 23/13 A2993 RMK AO2 T02310128
KUNU 251715Z AUTO 20014G20KT 10SM CLR 23/13 A2994 RMK AO2 T02300131
KUNU 251655Z AUTO 19010G15KT 10SM CLR 23/13 A2995 RMK AO2 T02250133
KUNU 251635Z AUTO 20011G18KT 10SM CLR 22/13 A2995 RMK AO2 T02190134
KUNU 251615Z AUTO 19011KT 10SM CLR 21/14 A2996 RMK AO2 T02140139
KUNU 251555Z AUTO 19009KT 10SM CLR 21/14 A2997 RMK AO2 T02080138
KUNU 251535Z AUTO 21012KT 10SM CLR 20/14 A2997 RMK AO2 T02030136
KUNU 251515Z AUTO 19010KT 10SM CLR 20/14 A2997 RMK AO2 T01980139
KUNU 251455Z AUTO 20008G14KT 10SM CLR 19/14 A2997 RMK AO2 T01920139
KUNU 251435Z AUTO 21009KT 10SM CLR 19/14 A2997 RMK AO2 T01850137
KUNU 251415Z AUTO 19008KT 10SM CLR 18/14 A2997 RMK AO2 T01790136
KUNU 251355Z AUTO 19006KT 10SM CLR 17/13 A2997 RMK AO2 T01720134
KUNU 251335Z AUTO 18006KT 10SM CLR 16/13 A2996 RMK AO2 T01640131
KUNU 251315Z AUTO 17005KT 10SM CLR 16/13 A2996 RMK AO2 T01580131
KUNU 251255Z AUTO 17005KT 10SM CLR 15/13 A2996 RMK AO2 T01530130
KUNU 251235Z AUTO 17004KT 10SM CLR 15/13 A2996 RMK AO2 T01470130
KUNU 251215Z AUTO 16005KT 10SM CLR 14/13 A2995 RMK AO2 T01400127
KUNU 251155Z AUTO 15003KT 10SM CLR 14/13 A2995 RMK AO2 T01410127 10322 20022
KUNU 251135Z AUTO 00000KT 10SM CLR 14/13 A2995 RMK AO2 T01430127
KUNU 251115Z AUTO 00000KT 10SM CLR 15/13 A2995 RMK AO2 T01460127
KUNU 251055Z AUTO 18003KT 10SM SCT060 15/13 A2995 RMK AO2 T01500129
KUNU 251035Z AUTO 18003KT 10SM BKN060 15/13 A2995 RMK AO2 T01530130
KUNU 251015Z AUTO 18003KT 10SM BKN060 15/13 A2994 RMK AO2 T01520131
KUNU 250955Z AUTO 20003KT 10SM BKN060 BKN070 15/13 A2994 RMK AO2 T01510131
KUNU 250935Z AUTO 20003KT 10SM SCT048 SCT050 BKN070 16/13 A2994 RMK AO2 T01580134
KUNU 250915Z AUTO 20004KT 10SM BKN048 OVC050 16/14 A2993 RMK AO2 T01550137
KUNU 250855Z AUTO 20004KT 10SM SCT048 SCT050 BKN075 16/14 A2993 RMK AO2 T01550135
KUNU 250835Z AUTO 19003KT 10SM CLR 16/14 A2992 RMK AO2 T01550135
KUNU 250815Z AUTO 18004KT 10SM CLR 16/14 A2992 RMK AO2 T01570137
KUNU 250755Z AUTO 17003KT 10SM SCT060 16/14 A2992 RMK AO2 T01590140
KUNU 250735Z AUTO 17003KT 10SM SCT070 16/14 A2992 RMK AO2 T01640141
KUNU 250715Z AUTO 16004KT 10SM SCT048 BKN070 17/15 A2992 RMK AO2 T01720145
KUNU 250655Z AUTO 17003KT 10SM BKN050 OVC060 18/15 A2992 RMK AO2 T01760147
KUNU 250635Z AUTO 17003KT 10SM OVC050 18/15 A2992 RMK AO2 T01780149
KUNU 250615Z AUTO 19003KT 10SM OVC048 18/15 A2992 RMK AO2 T01790150
KUNU 250555Z AUTO 18005KT 10SM OVC048 18/15 A2992 RMK AO2 T01790150 10322 20022 403220022
KUNU 250535Z AUTO 17004KT 10SM OVC048 18/15 A2992 RMK AO2 T01770152
KUNU 250515Z AUTO 00000KT 10SM BKN048 BKN060 BKN080 18/15 A2992 RMK AO2 T01760151
KUNU 250455Z AUTO 17004KT 10SM BKN050 BKN060 BKN080 18/15 A2992 RMK AO2 T01770150
KUNU 250435Z AUTO 18004KT 10SM BKN050 BKN065 OVC080 18/15 A2992 RMK AO2 T01810152
KUNU 250415Z AUTO 16005KT 10SM BKN050 OVC065 18/15 A2991 RMK AO2 T01830154
KUNU 250355Z AUTO 15004KT 10SM BKN050 OVC065 19/16 A2992 RMK AO2 T01850155
KUNU 250335Z AUTO 16005KT 10SM SCT049 OVC060 19/16 A2992 RMK AO2 T01860156
KUNU 250315Z AUTO 16006KT 10SM OVC060 18/16 A2991 RMK AO2 T01840159
KUNU 250255Z AUTO 16005KT 10SM OVC060 18/16 A2991 RMK AO2 T01800164
KUNU 250235Z AUTO 13004KT 10SM OVC060 18/16 A2991 RMK AO2 T01830164
KUNU 250215Z AUTO 14005KT 10SM BKN060 OVC110 18/17 A2991 RMK AO2 T01830166
KUNU 250155Z AUTO 14004KT 10SM OVC060 18/17 A2991 RMK AO2 T01800168
KUNU 250135Z AUTO 13003KT 10SM SCT060 BKN070 OVC085 18/17 A2991 RMK AO2 T01770170
KUNU 250115Z AUTO 00000KT 10SM BKN075 OVC085 18/17 A2991 RMK AO2 T01790168
KUNU 250055Z AUTO 00000KT 10SM SCT075 SCT085 BKN110 18/17 A2990 RMK AO2 T01840166
KUNU 250035Z AUTO 00000KT 10SM SCT075 OVC110 19/17 A2990 RMK AO2 T01850165
KUNU 250015Z AUTO 17003KT 10SM SCT080 BKN110 19/16 A2990 RMK AO2 LTG DSNT NW T01850164
KUNU 242355Z AUTO 00000KT 10SM SCT048 SCT050 BKN080 19/17 A2990 RMK AO2 T01890166 10322 20022
KUNU 242335Z AUTO 16003KT 10SM SCT038 SCT050 BKN110 20/17 A2990 RMK AO2 T01960168
KUNU 242315Z AUTO 19003KT 10SM RA SCT045 BKN085 OVC110 20/17 A2990 RMK AO2 LTG DSNT NE T02020166
KUNU 242255Z AUTO 00000KT 10SM SCT049 BKN060 OVC075 21/17 A2990 RMK AO2 T02090166
KUNU 242235Z AUTO 20003KT 10SM SCT033 BKN060 OVC110 21/17 A2990 RMK AO2 T02130166
KUNU 242215Z AUTO 20003KT 10SM SCT035 SCT047 BKN110 22/17 A2989 RMK AO2 T02190166
KUNU 242155Z AUTO 20004KT 10SM BKN035 BKN060 BKN110 22/16 A2989 RMK AO2 T02210162
KUNU 242135Z AUTO 20007KT 10SM SCT035 SCT110 22/16 A2989 RMK AO2 T02230160
KUNU 242115Z AUTO 19008KT 10SM SCT120 22/16 A2988 RMK AO2 T02200163
KUNU 242055Z AUTO 16007KT 10SM SCT120 22/16 A2986 RMK AO2 T02160162
KUNU 242035Z AUTO 16005KT 10SM SCT075 SCT120 22/16 A2986 RMK AO2 T02160164
KUNU 242015Z AUTO 21007KT 10SM SCT037 BKN070 OVC080 22/16 A2988 RMK AO2 T02150160
KUNU 241955Z AUTO 22009KT 10SM SCT035 BKN042 OVC070 22/15 A2990 RMK AO2 T02180154
KUNU 241935Z AUTO 21012KT 10SM BKN037 BKN043 BKN070 22/15 A2990 RMK AO2 T02210150
KUNU 241915Z AUTO 22011KT 10SM SCT039 SCT049 SCT065 23/15 A2990 RMK AO2 T02250152
KUNU 241855Z AUTO 20006KT 10SM SCT041 BKN047 BKN065 23/15 A2990 RMK AO2 T02250150
KUNU 241835Z AUTO 21007KT 10SM BKN041 BKN050 OVC065 23/15 A2991 RMK AO2 T02260151
KUNU 241815Z AUTO 20009KT 10SM BKN040 BKN050 BKN065 23/15 A2991 RMK AO2 T02290153
KUNU 241755Z AUTO 19009G14KT 10SM SCT038 BKN045 BKN055 23/15 A2992 RMK AO2 T02300153 10322 20022
KUNU 241735Z AUTO 20009KT 10SM SCT033 SCT044 SCT055 23/15 A2992 RMK AO2 LTG DSNT W T02270154
KUNU 241715Z AUTO 19009KT 10SM SCT033 SCT044 22/15 A2992 RMK AO2 T02220154
KUNU 241655Z AUTO 20008KT 10SM SCT035 SCT042 22/16 A2993 RMK AO2 T02200156
KUNU 241635Z AUTO 20008KT 10SM CLR 22/16 A2993 RMK AO2 T02170155
KUNU 241615Z AUTO 18007KT 10SM CLR 21/16 A2993 RMK AO2 LTG DSNT W T02100155
KUNU 241555Z AUTO 16005KT 10SM CLR 20/16 A2993 RMK AO2 LTG DSNT W T02030157
KUNU 241535Z AUTO 20003KT 10SM SCT047 19/16 A2994 RMK AO2 T01940155
KUNU 241515Z AUTO 16004KT 10SM SCT049 18/15 A2994 RMK AO2 T01830152
KUNU 241455Z AUTO 00000KT 10SM BKN049 17/15 A2995 RMK AO2 T01730150
KUNU 241435Z AUTO 00000KT 10SM SCT047 16/15 A2995 RMK AO2 T01620147
KUNU 241415Z AUTO 00000KT 10SM SCT047 15/14 A2995 RMK AO2 T01540144
KUNU 241355Z AUTO 00000KT 10SM SCT045 15/14 A2995 RMK AO2 T01450139
KUNU 241335Z AUTO 00000KT 7SM CLR 14/13 A2994 RMK AO2 T01380134
KUNU 241315Z AUTO 00000KT 7SM CLR 13/13 A2995 RMK AO2 T01330131
KUNU 241255Z AUTO 00000KT 7SM SCT043 13/13 A2994 RMK AO2 T01310127
KUNU 241235Z AUTO 00000KT 10SM BKN043 13/12 A2994 RMK AO2 T01250123
KUNU 241215Z AUTO 00000KT 7SM CLR 12/12 A2994 RMK AO2 T01190117
KUNU 241155Z AUTO 00000KT 7SM CLR 12/12 A2994 RMK AO2 T01190116 10322 20022
KUNU 241135Z AUTO 00000KT 7SM CLR 12/12 A2994 RMK AO2 T01190117
KUNU 241115Z AUTO 00000KT 7SM CLR 12/12 A2994 RMK AO2 LTG DSNT W T01210117
KUNU 241055Z AUTO 00000KT 10SM CLR 12/12 A2993 RMK AO2 T01220119
KUNU 241035Z AUTO 00000KT 7SM CLR 12/12 A2993 RMK AO2 T01210118
KUNU 241015Z AUTO 00000KT 7SM CLR 12/12 A2993 RMK AO2 T01210117
KUNU 240955Z AUTO 00000KT 10SM CLR 12/12 A2993 RMK AO2 T01210118
KUNU 240935Z AUTO 00000KT 10SM CLR 12/12 A2992 RMK AO2 T01220118
KUNU 240915Z AUTO 00000KT 10SM CLR 13/12 A2993 RMK AO2 T01250121
KUNU 240855Z AUTO 00000KT 10SM CLR 13/12 A2994 RMK AO2 T01250122
KUNU 240835Z AUTO 00000KT 10SM CLR 12/12 A2994 RMK AO2 T01230120
KUNU 240815Z AUTO 00000KT 10SM CLR 13/12 A2994 RMK AO2 T01250121